METAR Data
IDs: Format: Raw Decoded Include TAF

Data at: 0029 UTC 19 Nov 2018

PABL 182356Z AUTO 12012KT 10SM OVC016 M03/M05 A2950 RMK AO2 SNE30 SLP991 P0000 60000 T10281050 11028 21044 58002 FZRANO
PABL 182256Z AUTO 13010KT 9SM -SN FEW047 BKN065 OVC085 M03/M05 A2950 RMK AO2 SNB47 SLP992 P0000 T10281050 FZRANO
PABL 182156Z AUTO 11013G18KT 10SM FEW044 OVC095 M03/M06 A2951 RMK AO2 SLP994 T10331061 FZRANO
PABL 182056Z AUTO 12010KT 10SM FEW022 SCT075 OVC095 M03/M06 A2950 RMK AO2 SLP993 60000 T10331061 55001 FZRANO
PABL 181956Z AUTO 11012KT 10SM OVC070 M03/M06 A2950 RMK AO2 SNE24 SLP991 P0000 T10331061 FZRANO
PABL 181856Z AUTO 11010KT 9SM -SN OVC035 M03/M06 A2951 RMK AO2 SLP994 P0000 T10331061 FZRANO
PABL 181847Z AUTO 11011G16KT 9SM -SN OVC033 M03/M06 A2950 RMK AO2 P0000 FZRANO
PABL 181756Z AUTO 11006KT 4SM -SN BR OVC024 M04/M06 A2951 RMK AO2 SLP994 P0000 60000 T10441061 11033 21044 58002 FZRANO
PABL 181728Z AUTO 12008KT 4SM -SN BR BKN022 OVC030 M04/M06 A2951 RMK AO2 P0000 FZRANO
PABL 181656Z AUTO 10009KT 9SM -SN OVC035 M04/M07 A2951 RMK AO2 SNB1557 SLP994 P0000 T10391067 FZRANO
PABL 181556Z AUTO 10009KT 10SM FEW035 BKN060 OVC075 M04/M07 A2951 RMK AO2 SLP996 T10391072 FZRANO
PABL 181456Z AUTO 11011KT 10SM OVC070 M03/M08 A2951 RMK AO2 SLP995 T10331083 58009 FZRANO
PABL 181356Z AUTO 13009KT 10SM OVC070 M03/M08 A2952 RMK AO2 SLP000 T10331083 FZRANO
PABL 181256Z AUTO 15007KT 10SM OVC100 M04/M09 A2953 RMK AO2 SLP004 T10391089 FZRANO
PABL 181156Z AUTO 14005KT 10SM SCT070 OVC110 M04/M09 A2954 RMK AO2 SLP005 T10391089 11039 21056 58005 FZRANO
PABL 181056Z AUTO 13009KT 10SM OVC055 M04/M09 A2954 RMK AO2 SLP006 T10441089 FZRANO
PABL 180956Z AUTO 14007KT 10SM BKN060 OVC110 M05/M09 A2955 RMK AO2 SLP010 T10501094 FZRANO
PABL 180856Z AUTO 13009KT 10SM OVC110 M06/M09 A2955 RMK AO2 SLP010 T10561094 53002 FZRANO
PABL 180756Z AUTO 12011G16KT 10SM FEW095 M06/M10 A2954 RMK AO2 SLP005 T10561100 410331056 FZRANO
PABL 180556Z AUTO 16008KT 10SM OVC090 M04/M08 A2955 RMK AO2 SLP007 T10441083 11039 21050 56011 FZRANO
PABL 180456Z AUTO 12010KT 10SM OVC095 M04/M09 A2955 RMK AO2 SLP009 T10391089 FZRANO
PABL 180356Z AUTO 14008KT 10SM OVC090 M04/M09 A2957 RMK AO2 SLP015 T10441089 FZRANO
PABL 180256Z AUTO 14009KT 10SM OVC090 M04/M09 A2958 RMK AO2 SLP018 T10441089 56008 FZRANO
PABL 180156Z AUTO 11009G16KT 10SM SCT065 OVC080 M04/M09 A2958 RMK AO2 SLP020 T10441089 FZRANO
PABL 180056Z AUTO 15009KT 10SM OVC080 M04/M08 A2959 RMK AO2 SLP021 T10391083 FZRANO
PABL 172356Z AUTO 14008KT 10SM BKN055 OVC075 M04/M08 A2960 RMK AO2 SLP026 60000 T10391083 11033 21044 57007 FZRANO
PABL 172317Z AUTO 16008KT 10SM SCT021 OVC070 M03/M08 A2961 RMK AO2 FZRANO
PABL 172256Z AUTO 14007KT 10SM OVC019 M04/M08 A2961 RMK AO2 SNE12 SLP028 P0000 T10391083 FZRANO
PABL 172247Z AUTO 16006KT 10SM BKN019 BKN036 OVC045 M04/M08 A2961 RMK AO2 SNE12 P0000 FZRANO
PABL 172156Z AUTO 11013G17KT 8SM -SN FEW027 OVC035 M04/M08 A2962 RMK AO2 SLP031 P0000 T10391078 FZRANO
PABL 172056Z AUTO 13011G17KT 6SM -SN BKN046 OVC055 M04/M07 A2962 RMK AO2 SNB06 SLP033 P0000 60000 T10441072 55001 FZRANO
PABL 172015Z AUTO 11015G22KT 9SM -SN SCT028 SCT050 OVC080 M04/M07 A2962 RMK AO2 SNB06 P0000 FZRANO
PABL 171956Z AUTO 11018G22KT 10SM BKN028 BKN049 OVC075 M04/M07 A2962 RMK AO2 SNB04E17 SLP032 P0000 T10391067 FZRANO
PABL 171906Z AUTO 12013G18KT 10SM -SN SCT017 OVC030 M03/M06 A2962 RMK AO2 SNB04 P0000 FZRANO
PABL 171856Z AUTO 13010KT 10SM BKN017 OVC032 M04/M06 A2962 RMK AO2 SNE08 SLP033 P0000 T10391061 FZRANO
PABL 171656Z AUTO 14009KT 9SM -SN BKN023 OVC028 M04/M06 A2963 RMK AO2 SLP037 P0000 T10391061 FZRANO
PABL 171556Z AUTO 15009KT 9SM -SN OVC024 M04/M06 A2965 RMK AO2 SNB49 SLP041 P0000 T10391061 FZRANO
PABL 171456Z AUTO 13012KT 10SM OVC026 M04/M06 A2965 RMK AO2 SNE04B28E40 SLP044 P0000 60000 T10391061 56016 FZRANO
PABL 171403Z AUTO 11010G19KT 9SM -SN FEW022 OVC028 M04/M07 A2966 RMK AO2 P0000 FZRANO
PABL 171356Z AUTO 12012G19KT 9SM -SN SCT020 OVC030 M04/M07 A2967 RMK AO2 SNE00B37 SLP048 P0000 T10391067 FZRANO
PABL 171256Z AUTO 13011G18KT 9SM -SN OVC022 M04/M07 A2969 RMK AO2 SLP055 P0000 T10391067 FZRANO